Time;durP1;ratioP1;P1;durP2;ratioP2;P2;SDS_P1;SDS_P2;PMS_P1;PMS_P2;Temp;Humidity;BMP_temperature;BMP_pressure;BME280_temperature;BME280_humidity;BME280_pressure;Samples;Min_cycle;Max_cycle;Signal;HPM_P1;HPM_P2
2023/09/19 00:01:31;;;;;;;6.47;1.95;;;;;;;;;;5082413;28;20027;-62
2023/09/19 00:03:59;;;;;;;5.07;1.73;;;;;;;;;;5075087;28;20487;-62
2023/09/19 00:06:26;;;;;;;4.72;1.52;;;;;;;;;;5060533;28;20504;-62
2023/09/19 00:08:52;;;;;;;6.80;2.30;;;;;;;;;;5073431;28;20024;-62
2023/09/19 00:11:17;;;;;;;5.60;1.60;;;;;;;;;;5077874;28;20124;-62
2023/09/19 00:13:43;;;;;;;4.60;1.88;;;;;;;;;;5071062;28;20490;-62
2023/09/19 00:16:11;;;;;;;7.03;1.90;;;;;;;;;;5062551;28;20032;-63
2023/09/19 00:18:37;;;;;;;7.68;1.60;;;;;;;;;;5064512;28;20099;-62
2023/09/19 00:21:04;;;;;;;4.63;1.92;;;;;;;;;;5078566;28;20158;-64
2023/09/19 00:23:31;;;;;;;5.30;1.85;;;;;;;;;;5074354;28;20028;-61
2023/09/19 00:26:01;;;;;;;4.78;1.60;;;;;;;;;;5080252;28;20123;-61
2023/09/19 00:28:31;;;;;;;5.65;1.80;;;;;;;;;;5062203;28;20036;-64
2023/09/19 00:30:56;;;;;;;7.70;1.85;;;;;;;;;;5077689;28;20546;-63
2023/09/19 00:33:22;;;;;;;7.77;1.73;;;;;;;;;;5078074;28;20024;-63
2023/09/19 00:35:48;;;;;;;4.50;1.70;;;;;;;;;;5071171;28;20373;-64
2023/09/19 00:38:15;;;;;;;6.22;1.88;;;;;;;;;;5075751;28;20016;-63
2023/09/19 00:40:43;;;;;;;4.80;1.60;;;;;;;;;;5082439;28;20638;-62
2023/09/19 00:43:11;;;;;;;5.15;1.67;;;;;;;;;;5078290;28;20028;-62
2023/09/19 00:45:41;;;;;;;4.72;1.73;;;;;;;;;;5083737;28;20085;-63
2023/09/19 00:48:10;;;;;;;4.47;1.83;;;;;;;;;;5061533;28;20027;-60
2023/09/19 00:50:35;;;;;;;5.20;1.63;;;;;;;;;;5080012;28;20015;-62
2023/09/19 00:53:02;;;;;;;6.85;2.05;;;;;;;;;;5064574;28;20697;-62
2023/09/19 00:55:32;;;;;;;4.70;1.75;;;;;;;;;;5065485;28;20114;-62
2023/09/19 00:57:58;;;;;;;;;;;;;;;;;;5061126;28;20021;-62
2023/09/19 01:00:24;;;;;;;7.00;2.30;;;;;;;;;;5063780;28;19919;-63
2023/09/19 01:02:49;;;;;;;5.25;2.10;;;;;;;;;;5059967;28;20086;-63
2023/09/19 01:05:15;;;;;;;8.43;2.03;;;;;;;;;;5081609;28;20020;-61
2023/09/19 01:07:40;;;;;;;5.07;1.75;;;;;;;;;;5076459;28;20272;-62
2023/09/19 01:10:09;;;;;;;5.45;2.00;;;;;;;;;;5055755;28;20032;-61
2023/09/19 01:12:43;;;;;;;4.75;1.70;;;;;;;;;;5056261;28;20644;-61
2023/09/19 01:15:21;;;;;;;5.28;1.90;;;;;;;;;;5058140;28;20422;-63
2023/09/19 01:17:52;;;;;;;6.15;1.88;;;;;;;;;;5077768;28;20587;-63
2023/09/19 01:20:31;;;;;;;5.90;1.80;;;;;;;;;;5081410;28;20111;-64
2023/09/19 01:23:15;;;;;;;6.75;2.10;;;;;;;;;;5059943;28;20103;-63
2023/09/19 01:25:59;;;;;;;6.00;2.03;;;;;;;;;;5074475;28;20487;-63
2023/09/19 01:28:40;;;;;;;5.15;1.70;;;;;;;;;;5076217;28;20464;-63
2023/09/19 01:31:11;;;;;;;4.45;1.50;;;;;;;;;;5072681;28;20103;-63
2023/09/19 01:33:59;;;;;;;6.20;1.70;;;;;;;;;;5073267;28;20111;-63
2023/09/19 01:36:29;;;;;;;6.40;1.65;;;;;;;;;;5057629;28;20025;-62
2023/09/19 01:38:54;;;;;;;5.43;1.95;;;;;;;;;;5054807;28;20020;-62
2023/09/19 01:41:27;;;;;;;5.18;1.30;;;;;;;;;;5069601;28;21113;-63
2023/09/19 01:43:52;;;;;;;6.28;1.70;;;;;;;;;;5071850;28;20448;-65
2023/09/19 01:46:34;;;;;;;4.00;1.50;;;;;;;;;;5071793;28;20056;-62
2023/09/19 01:49:03;;;;;;;5.85;1.65;;;;;;;;;;5081564;28;20024;-62
2023/09/19 01:51:33;;;;;;;5.13;1.95;;;;;;;;;;5070957;28;20031;-62
2023/09/19 01:54:02;;;;;;;6.82;1.80;;;;;;;;;;5077443;28;20081;-62
2023/09/19 01:56:27;;;;;;;;;;;;;;;;;;5074653;28;20089;-62
2023/09/19 01:58:56;;;;;;;5.88;1.58;;;;;;;;;;5075578;28;19916;-63
2023/09/19 02:01:22;;;;;;;6.38;2.10;;;;;;;;;;5072371;28;20531;-62
2023/09/19 02:03:48;;;;;;;4.88;1.58;;;;;;;;;;5082092;28;20544;-62
2023/09/19 02:06:18;;;;;;;6.28;1.60;;;;;;;;;;5080558;28;20035;-63
2023/09/19 02:08:43;;;;;;;;;;;;;;;;;;5081352;28;20027;-63
2023/09/19 02:11:08;;;;;;;6.28;1.67;;;;;;;;;;5075686;28;19912;-63
2023/09/19 02:13:33;;;;;;;4.57;1.70;;;;;;;;;;5067542;28;20024;-64
2023/09/19 02:15:59;;;;;;;5.13;1.80;;;;;;;;;;5078710;28;20621;-66
2023/09/19 02:18:24;;;;;;;8.27;2.08;;;;;;;;;;5053997;28;20383;-63
2023/09/19 02:20:51;;;;;;;4.50;1.80;;;;;;;;;;5057267;28;20383;-61
2023/09/19 02:23:16;;;;;;;4.85;1.75;;;;;;;;;;5074410;28;20320;-63
2023/09/19 02:25:43;;;;;;;6.43;2.10;;;;;;;;;;5074645;28;20032;-62
2023/09/19 02:28:11;;;;;;;5.05;1.73;;;;;;;;;;5076190;28;20516;-62
2023/09/19 02:30:36;;;;;;;5.22;2.00;;;;;;;;;;5076320;28;20044;-62
2023/09/19 02:33:03;;;;;;;5.68;1.80;;;;;;;;;;5051097;28;20132;-62
2023/09/19 02:35:28;;;;;;;6.30;1.90;;;;;;;;;;5070521;28;20055;-62
2023/09/19 02:37:53;;;;;;;6.45;1.80;;;;;;;;;;5070496;28;20059;-60
2023/09/19 02:40:22;;;;;;;6.43;1.98;;;;;;;;;;5064013;28;20096;-62
2023/09/19 02:42:55;;;;;;;6.18;2.03;;;;;;;;;;5074983;28;20029;-62
2023/09/19 02:45:23;;;;;;;6.43;2.03;;;;;;;;;;5068761;28;20020;-62
2023/09/19 02:47:49;;;;;;;4.70;1.88;;;;;;;;;;5073307;28;21241;-63
2023/09/19 02:50:20;;;;;;;4.78;1.90;;;;;;;;;;5051341;28;20027;-66
2023/09/19 02:52:49;;;;;;;4.93;1.80;;;;;;;;;;5074294;28;20552;-62
2023/09/19 02:55:17;;;;;;;8.10;1.80;;;;;;;;;;5061896;28;20051;-62
2023/09/19 02:57:54;;;;;;;4.38;1.92;;;;;;;;;;5061959;28;20024;-62
2023/09/19 03:00:20;;;;;;;5.70;1.70;;;;;;;;;;5075736;28;20039;-61
2023/09/19 03:02:48;;;;;;;7.22;2.25;;;;;;;;;;5076131;28;20015;-61
2023/09/19 03:05:14;;;;;;;5.72;2.30;;;;;;;;;;5076224;28;20056;-61
2023/09/19 03:07:39;;;;;;;4.75;1.80;;;;;;;;;;5066961;28;20581;-62
2023/09/19 03:10:07;;;;;;;5.70;1.92;;;;;;;;;;5081659;28;20480;-62
2023/09/19 03:12:33;;;;;;;5.07;1.98;;;;;;;;;;5068071;28;20073;-61
2023/09/19 03:14:59;;;;;;;6.57;2.33;;;;;;;;;;5054716;28;20045;-61
2023/09/19 03:17:25;;;;;;;6.63;1.80;;;;;;;;;;5069781;28;20020;-63
2023/09/19 03:19:50;;;;;;;7.68;1.95;;;;;;;;;;5067680;28;20029;-61
2023/09/19 03:22:16;;;;;;;7.10;2.08;;;;;;;;;;5077161;28;20020;-62
2023/09/19 03:24:41;;;;;;;5.80;1.95;;;;;;;;;;5069250;28;20024;-63
2023/09/19 03:27:08;;;;;;;7.32;1.98;;;;;;;;;;5065406;28;20914;-63
2023/09/19 03:29:34;;;;;;;10.43;2.03;;;;;;;;;;5057686;28;20498;-61
2023/09/19 03:31:59;;;;;;;5.80;1.90;;;;;;;;;;5080573;28;20046;-62
2023/09/19 03:34:24;;;;;;;5.87;2.00;;;;;;;;;;5075404;28;20602;-60
2023/09/19 03:36:50;;;;;;;7.10;1.98;;;;;;;;;;5079055;28;20270;-61
2023/09/19 03:39:15;;;;;;;5.53;1.88;;;;;;;;;;5073870;28;20532;-60
2023/09/19 03:41:41;;;;;;;6.10;2.03;;;;;;;;;;5061203;28;20070;-62
2023/09/19 03:44:06;;;;;;;7.63;1.85;;;;;;;;;;5076867;28;20073;-62
2023/09/19 03:46:32;;;;;;;5.72;1.60;;;;;;;;;;5074561;27;20513;-63
2023/09/19 03:49:02;;;;;;;8.35;1.80;;;;;;;;;;5095333;27;20015;-61
2023/09/19 03:51:27;;;;;;;5.20;1.98;;;;;;;;;;5101773;27;20019;-62
2023/09/19 03:53:56;;;;;;;5.85;2.00;;;;;;;;;;5104904;27;20029;-64
2023/09/19 03:56:21;;;;;;;5.50;1.77;;;;;;;;;;5078974;27;20099;-62
2023/09/19 03:58:46;;;;;;;5.33;1.73;;;;;;;;;;5074691;28;20115;-62
2023/09/19 04:01:13;;;;;;;5.73;1.93;;;;;;;;;;5098620;27;20247;-64
2023/09/19 04:03:47;;;;;;;5.35;1.65;;;;;;;;;;5074601;28;20300;-63
2023/09/19 04:06:13;;;;;;;5.47;1.83;;;;;;;;;;5107297;27;20023;-62
2023/09/19 04:08:38;;;;;;;5.18;1.80;;;;;;;;;;5101469;27;20068;-63
2023/09/19 04:11:04;;;;;;;5.93;2.20;;;;;;;;;;5082837;27;20012;-63
2023/09/19 04:13:31;;;;;;;3.50;1.50;;;;;;;;;;5102051;27;20106;-62
2023/09/19 04:15:59;;;;;;;5.38;1.90;;;;;;;;;;5080950;28;20907;-61
2023/09/19 04:18:25;;;;;;;5.40;2.08;;;;;;;;;;5093867;27;20024;-62
2023/09/19 04:20:50;;;;;;;6.95;2.00;;;;;;;;;;5094642;27;20519;-61
2023/09/19 04:23:16;;;;;;;5.78;1.80;;;;;;;;;;5099664;27;20490;-62
2023/09/19 04:25:41;;;;;;;7.68;1.95;;;;;;;;;;5103069;27;20283;-62
2023/09/19 04:28:07;;;;;;;6.32;1.65;;;;;;;;;;5098212;27;20023;-61
2023/09/19 04:30:32;;;;;;;4.73;1.97;;;;;;;;;;5100769;27;20443;-61
2023/09/19 04:32:57;;;;;;;7.03;1.80;;;;;;;;;;5083367;28;20036;-62
2023/09/19 04:35:26;;;;;;;6.40;2.17;;;;;;;;;;5094125;27;20285;-62
2023/09/19 04:37:54;;;;;;;4.65;1.75;;;;;;;;;;5096817;27;20982;-62
2023/09/19 04:40:20;;;;;;;4.60;1.50;;;;;;;;;;5078717;28;20026;-62
2023/09/19 04:42:46;;;;;;;4.97;1.83;;;;;;;;;;5096185;27;20035;-63
2023/09/19 04:45:11;;;;;;;5.43;2.00;;;;;;;;;;5093525;27;20019;-62
2023/09/19 04:47:38;;;;;;;6.57;1.80;;;;;;;;;;5066084;28;20806;-62
2023/09/19 04:50:05;;;;;;;4.63;1.98;;;;;;;;;;5075090;28;20020;-62
2023/09/19 04:52:33;;;;;;;6.88;1.88;;;;;;;;;;5077772;28;20035;-61
2023/09/19 04:54:58;;;;;;;5.40;1.92;;;;;;;;;;5052149;28;20486;-64
2023/09/19 04:57:26;;;;;;;4.77;1.80;;;;;;;;;;5080665;28;20509;-62
2023/09/19 04:59:51;;;;;;;6.57;1.73;;;;;;;;;;5076484;28;20350;-61
2023/09/19 05:02:19;;;;;;;5.63;1.60;;;;;;;;;;5073488;28;20020;-61
2023/09/19 05:04:44;;;;;;;6.45;1.95;;;;;;;;;;5074272;28;20088;-61
2023/09/19 05:07:11;;;;;;;5.67;1.60;;;;;;;;;;5078955;28;20085;-62
2023/09/19 05:09:37;;;;;;;5.63;1.50;;;;;;;;;;5069331;28;20339;-61
2023/09/19 05:12:04;;;;;;;3.90;1.60;;;;;;;;;;5077178;28;20024;-61
2023/09/19 05:14:32;;;;;;;6.82;1.70;;;;;;;;;;5072813;28;20027;-61
2023/09/19 05:16:57;;;;;;;5.45;1.88;;;;;;;;;;5074590;28;20067;-62
2023/09/19 05:19:25;;;;;;;4.27;1.80;;;;;;;;;;5052788;28;20110;-65
2023/09/19 05:21:52;;;;;;;5.82;1.80;;;;;;;;;;5054299;28;21119;-62
2023/09/19 05:24:18;;;;;;;5.63;1.60;;;;;;;;;;5081003;28;20032;-62
2023/09/19 05:26:45;;;;;;;8.00;1.97;;;;;;;;;;5072821;28;20109;-61
2023/09/19 05:29:11;;;;;;;6.30;1.70;;;;;;;;;;5054568;28;20278;-62
2023/09/19 05:31:40;;;;;;;7.00;1.80;;;;;;;;;;5069188;28;20884;-61
2023/09/19 05:34:06;;;;;;;;;;;;;;;;;;5069783;28;20012;-61
2023/09/19 05:36:31;;;;;;;6.35;1.90;;;;;;;;;;5073233;28;19927;-62
2023/09/19 05:38:59;;;;;;;5.70;1.83;;;;;;;;;;5055306;28;20606;-61
2023/09/19 05:41:27;;;;;;;5.97;1.77;;;;;;;;;;5049630;28;20133;-61
2023/09/19 05:43:52;;;;;;;4.72;1.90;;;;;;;;;;5062786;28;20035;-61
2023/09/19 05:46:20;;;;;;;7.60;2.00;;;;;;;;;;5069393;28;20049;-62
2023/09/19 05:48:47;;;;;;;7.65;1.80;;;;;;;;;;5077202;28;20263;-60
2023/09/19 05:51:13;;;;;;;5.47;1.73;;;;;;;;;;5076032;28;20024;-61
2023/09/19 05:53:43;;;;;;;5.33;2.13;;;;;;;;;;5076889;28;20714;-62
2023/09/19 05:56:10;;;;;;;5.40;1.50;;;;;;;;;;5053938;28;20319;-62
2023/09/19 05:58:35;;;;;;;5.45;1.75;;;;;;;;;;5078971;28;20016;-61
2023/09/19 06:01:01;;;;;;;5.80;2.10;;;;;;;;;;5077164;28;20030;-60
2023/09/19 06:03:30;;;;;;;5.30;1.98;;;;;;;;;;5072599;28;20082;-61
2023/09/19 06:05:57;;;;;;;9.00;2.00;;;;;;;;;;5077173;28;20168;-60
2023/09/19 06:08:22;;;;;;;4.15;1.70;;;;;;;;;;5058644;28;20065;-61
2023/09/19 06:10:52;;;;;;;6.63;1.90;;;;;;;;;;5056135;28;20020;-62
2023/09/19 06:13:18;;;;;;;;;;;;;;;;;;5071503;28;20027;-61
2023/09/19 06:15:43;;;;;;;5.65;1.85;;;;;;;;;;5058303;28;19912;-63
2023/09/19 06:18:12;;;;;;;6.68;1.98;;;;;;;;;;5059403;28;20024;-62
2023/09/19 06:20:44;;;;;;;6.03;2.17;;;;;;;;;;5054792;28;20032;-62
2023/09/19 06:23:09;;;;;;;5.45;1.80;;;;;;;;;;5076460;28;20066;-62
2023/09/19 06:25:35;;;;;;;5.88;1.77;;;;;;;;;;5061280;28;20177;-63
2023/09/19 06:28:05;;;;;;;4.10;1.70;;;;;;;;;;5073379;28;20021;-63
2023/09/19 06:30:30;;;;;;;7.00;2.17;;;;;;;;;;5061842;28;20031;-61
2023/09/19 06:33:02;;;;;;;5.93;2.15;;;;;;;;;;5062798;28;20028;-62
2023/09/19 06:35:29;;;;;;;6.50;1.83;;;;;;;;;;5073318;28;20047;-63
2023/09/19 06:37:57;;;;;;;5.40;2.00;;;;;;;;;;5054428;28;20016;-62
2023/09/19 06:40:22;;;;;;;7.10;1.98;;;;;;;;;;5071930;28;20495;-63
2023/09/19 06:42:53;;;;;;;7.18;2.20;;;;;;;;;;5075361;28;20028;-62
2023/09/19 06:45:19;;;;;;;6.90;2.00;;;;;;;;;;5075311;28;20020;-63
2023/09/19 06:47:57;;;;;;;6.68;2.33;;;;;;;;;;5077127;28;20020;-62
2023/09/19 06:50:23;;;;;;;7.07;2.40;;;;;;;;;;5079918;28;20034;-62
2023/09/19 06:52:51;;;;;;;7.40;3.05;;;;;;;;;;5056808;28;20019;-61
2023/09/19 06:55:20;;;;;;;11.60;5.17;;;;;;;;;;5054315;28;20025;-61
2023/09/19 06:57:45;;;;;;;8.52;3.38;;;;;;;;;;5070656;28;20731;-62
2023/09/19 07:00:24;;;;;;;7.60;2.40;;;;;;;;;;5064405;28;20020;-62
2023/09/19 07:02:56;;;;;;;7.97;1.98;;;;;;;;;;5078631;28;20094;-62
2023/09/19 07:05:23;;;;;;;6.05;2.30;;;;;;;;;;5078528;28;20819;-62
2023/09/19 07:07:49;;;;;;;5.20;1.70;;;;;;;;;;5079696;28;20095;-63
2023/09/19 07:10:14;;;;;;;6.95;1.70;;;;;;;;;;5084136;28;20091;-60
2023/09/19 07:12:41;;;;;;;7.15;2.65;;;;;;;;;;5062007;28;20146;-63
2023/09/19 07:15:06;;;;;;;6.53;1.92;;;;;;;;;;5061508;28;20021;-62
2023/09/19 07:17:32;;;;;;;6.60;1.67;;;;;;;;;;5080243;28;20031;-61
2023/09/19 07:20:00;;;;;;;7.05;1.90;;;;;;;;;;5059922;28;20016;-62
2023/09/19 07:22:26;;;;;;;5.40;2.17;;;;;;;;;;5062179;28;20028;-62
2023/09/19 07:24:51;;;;;;;7.85;2.03;;;;;;;;;;5053553;28;20023;-62
2023/09/19 07:27:19;;;;;;;6.13;1.70;;;;;;;;;;5057087;28;20058;-62
2023/09/19 07:29:45;;;;;;;6.15;1.65;;;;;;;;;;5049935;28;20024;-64
2023/09/19 07:32:11;;;;;;;5.97;1.67;;;;;;;;;;5054794;28;20027;-61
2023/09/19 07:34:38;;;;;;;6.55;1.70;;;;;;;;;;5064137;28;20008;-62
2023/09/19 07:37:04;;;;;;;4.38;1.50;;;;;;;;;;5062866;28;20020;-62
2023/09/19 07:39:31;;;;;;;6.50;1.77;;;;;;;;;;5064930;28;20009;-62
2023/09/19 07:41:59;;;;;;;6.57;1.50;;;;;;;;;;5066485;28;20554;-62
2023/09/19 07:44:25;;;;;;;5.05;1.60;;;;;;;;;;5064612;28;20027;-61
2023/09/19 07:46:52;;;;;;;6.30;1.40;;;;;;;;;;5065867;28;20059;-62
2023/09/19 07:49:17;;;;;;;3.55;1.33;;;;;;;;;;5054242;28;20094;-63
2023/09/19 07:51:46;;;;;;;4.43;1.40;;;;;;;;;;5066793;28;20159;-61
2023/09/19 07:54:11;;;;;;;3.97;1.50;;;;;;;;;;5068263;28;20020;-62
2023/09/19 07:56:37;;;;;;;5.53;1.52;;;;;;;;;;5081186;27;20059;-62
2023/09/19 07:59:02;;;;;;;4.85;1.70;;;;;;;;;;5066197;28;20032;-62
2023/09/19 08:01:27;;;;;;;5.60;1.80;;;;;;;;;;5047865;28;20129;-62
2023/09/19 08:03:53;;;;;;;7.27;1.73;;;;;;;;;;5065565;28;20277;-62
2023/09/19 08:06:20;;;;;;;7.00;2.08;;;;;;;;;;5049847;28;20277;-63
2023/09/19 08:08:49;;;;;;;7.20;2.10;;;;;;;;;;5046387;28;20051;-62
2023/09/19 08:11:21;;;;;;;9.77;3.65;;;;;;;;;;5068318;28;20016;-64
2023/09/19 08:13:48;;;;;;;9.98;4.70;;;;;;;;;;5051024;28;20334;-62
2023/09/19 08:16:14;;;;;;;7.47;3.30;;;;;;;;;;5065870;28;21358;-64
2023/09/19 08:18:40;;;;;;;7.97;2.60;;;;;;;;;;5061921;28;20020;-62
2023/09/19 08:21:08;;;;;;;5.70;2.35;;;;;;;;;;5064227;28;20024;-61
2023/09/19 08:23:36;;;;;;;8.15;3.20;;;;;;;;;;5065297;28;20125;-62
2023/09/19 08:26:07;;;;;;;7.45;3.03;;;;;;;;;;5063500;28;21008;-62
2023/09/19 08:28:33;;;;;;;5.45;2.80;;;;;;;;;;5067045;28;20035;-62
2023/09/19 08:31:05;;;;;;;8.43;2.95;;;;;;;;;;5047718;28;20020;-63
2023/09/19 08:33:34;;;;;;;6.38;2.55;;;;;;;;;;5066720;28;20052;-61
2023/09/19 08:36:00;;;;;;;5.85;1.90;;;;;;;;;;5046627;28;20031;-62
2023/09/19 08:38:29;;;;;;;4.50;1.90;;;;;;;;;;5047653;28;20023;-62
2023/09/19 08:40:57;;;;;;;4.90;1.73;;;;;;;;;;5061989;28;20102;-64
2023/09/19 08:43:23;;;;;;;5.30;1.77;;;;;;;;;;5062509;28;20029;-62
2023/09/19 08:45:49;;;;;;;5.45;1.83;;;;;;;;;;5049743;28;20105;-62
2023/09/19 08:48:30;;;;;;;5.68;1.77;;;;;;;;;;5045972;28;20024;-60
2023/09/19 08:50:57;;;;;;;5.45;1.50;;;;;;;;;;5065681;28;20024;-62
2023/09/19 08:53:27;;;;;;;5.90;1.40;;;;;;;;;;5064001;28;20020;-62
2023/09/19 08:55:56;;;;;;;6.00;1.40;;;;;;;;;;5066401;28;20033;-62
2023/09/19 08:58:27;;;;;;;7.93;1.50;;;;;;;;;;5063172;28;20108;-62
2023/09/19 09:00:53;;;;;;;6.57;1.48;;;;;;;;;;5065596;28;20024;-61
2023/09/19 09:03:20;;;;;;;4.40;1.38;;;;;;;;;;5054376;28;20081;-62
2023/09/19 09:05:46;;;;;;;5.28;1.58;;;;;;;;;;5064983;28;20038;-63
2023/09/19 09:08:12;;;;;;;3.47;1.23;;;;;;;;;;5064252;28;20039;-64
2023/09/19 09:10:37;;;;;;;5.78;1.33;;;;;;;;;;5047405;28;20055;-63
2023/09/19 09:13:04;;;;;;;4.07;1.25;;;;;;;;;;5053616;28;20023;-62
2023/09/19 09:15:30;;;;;;;4.28;1.60;;;;;;;;;;5061770;28;20020;-66
2023/09/19 09:17:58;;;;;;;5.32;1.30;;;;;;;;;;5065909;28;20023;-63
2023/09/19 09:20:23;;;;;;;5.50;1.10;;;;;;;;;;5063402;28;20020;-62
2023/09/19 09:23:00;;;;;;;4.47;1.30;;;;;;;;;;5062897;28;20871;-62
2023/09/19 09:25:45;;;;;;;4.43;1.20;;;;;;;;;;5061414;28;20258;-64
2023/09/19 09:28:11;;;;;;;5.20;1.13;;;;;;;;;;5062208;28;20135;-63
2023/09/19 09:30:37;;;;;;;4.20;1.20;;;;;;;;;;5060047;28;20465;-63
2023/09/19 09:33:11;;;;;;;3.53;1.25;;;;;;;;;;5061164;28;20036;-65
2023/09/19 09:35:46;;;;;;;4.93;1.30;;;;;;;;;;5062582;28;20028;-63
2023/09/19 09:38:13;;;;;;;6.00;1.20;;;;;;;;;;5057892;28;20070;-62
2023/09/19 09:40:54;;;;;;;4.10;1.00;;;;;;;;;;5076294;28;20022;-63
2023/09/19 09:43:27;;;;;;;3.35;1.10;;;;;;;;;;5060008;28;20028;-68
2023/09/19 09:49:14;;;;;;;7.00;1.40;;;;;;;;;;5090441;28;20133;-63
2023/09/19 09:51:41;;;;;;;4.80;1.40;;;;;;;;;;5099846;27;20613;-63
2023/09/19 09:54:17;;;;;;;5.55;1.33;;;;;;;;;;5096203;27;20012;-63
2023/09/19 09:56:54;;;;;;;4.10;1.30;;;;;;;;;;5100350;27;20085;-63
2023/09/19 09:59:23;;;;;;;4.10;1.23;;;;;;;;;;5099560;27;20038;-64
2023/09/19 10:01:49;;;;;;;;;;;;;;;;;;5093792;27;20022;-64
2023/09/19 10:04:29;;;;;;;3.22;1.10;;;;;;;;;;5098108;27;19926;-63
2023/09/19 10:06:54;;;;;;;3.65;0.93;;;;;;;;;;5089441;27;20194;-62
2023/09/19 10:09:20;;;;;;;5.77;1.10;;;;;;;;;;5085925;28;20092;-63
2023/09/19 10:12:01;;;;;;;4.07;1.20;;;;;;;;;;5070645;28;20272;-61
2023/09/19 10:14:31;;;;;;;4.20;0.90;;;;;;;;;;5092929;27;20119;-62
2023/09/19 10:17:00;;;;;;;;;;;;;;;;;;5097576;27;20114;-62
2023/09/19 10:19:38;;;;;;;4.57;1.08;;;;;;;;;;5094631;27;19916;-63
2023/09/19 10:22:05;;;;;;;2.30;0.70;;;;;;;;;;5080263;27;20055;-64
2023/09/19 10:24:31;;;;;;;2.83;0.77;;;;;;;;;;5074653;28;20062;-63
2023/09/19 10:26:57;;;;;;;3.72;0.70;;;;;;;;;;5093129;28;20032;-62
2023/09/19 10:29:24;;;;;;;2.88;0.82;;;;;;;;;;5093578;27;20027;-63
2023/09/19 10:31:54;;;;;;;2.67;0.70;;;;;;;;;;5070276;28;20023;-63
2023/09/19 10:34:20;;;;;;;4.22;0.93;;;;;;;;;;5091850;27;20031;-63
2023/09/19 10:36:48;;;;;;;2.90;0.95;;;;;;;;;;5094869;27;20037;-63
2023/09/19 10:39:18;;;;;;;3.58;1.10;;;;;;;;;;5080873;28;20119;-61
2023/09/19 10:41:53;;;;;;;4.05;1.00;;;;;;;;;;5094812;28;20047;-63
2023/09/19 10:44:22;;;;;;;4.35;0.88;;;;;;;;;;5074505;28;20024;-63
2023/09/19 10:46:50;;;;;;;3.60;0.80;;;;;;;;;;5081119;28;20060;-62
2023/09/19 10:49:18;;;;;;;2.28;0.70;;;;;;;;;;5061614;28;20113;-63
2023/09/19 10:51:45;;;;;;;3.72;0.90;;;;;;;;;;5074609;28;20171;-63
2023/09/19 10:54:15;;;;;;;3.17;1.00;;;;;;;;;;5059215;28;20419;-63
2023/09/19 10:57:00;;;;;;;2.72;0.85;;;;;;;;;;5054139;28;21308;-62
2023/09/19 10:59:27;;;;;;;3.13;0.70;;;;;;;;;;5073193;28;20017;-63
2023/09/19 11:01:56;;;;;;;3.33;0.90;;;;;;;;;;5051820;28;20020;-63
2023/09/19 11:04:22;;;;;;;;;;;;;;;;;;5075274;28;20028;-62
2023/09/19 11:06:59;;;;;;;4.20;0.98;;;;;;;;;;5074537;28;19926;-62
2023/09/19 11:09:26;;;;;;;4.80;0.90;;;;;;;;;;5074522;28;20050;-60
2023/09/19 11:11:54;;;;;;;5.00;1.15;;;;;;;;;;5058005;28;20024;-62
2023/09/19 11:14:25;;;;;;;3.70;1.00;;;;;;;;;;5057446;28;20107;-62
2023/09/19 11:17:17;;;;;;;5.20;1.00;;;;;;;;;;5066041;28;20076;-61
2023/09/19 11:20:01;;;;;;;5.57;1.40;;;;;;;;;;5066051;28;20013;-62
2023/09/19 11:22:48;;;;;;;3.88;1.33;;;;;;;;;;5074418;28;20019;-62
2023/09/19 11:25:39;;;;;;;6.55;1.33;;;;;;;;;;5078047;28;20020;-63
2023/09/19 11:30:33;;;;;;;4.75;1.05;;;;;;;;;;5075296;28;20713;-64
2023/09/19 11:33:37;;;;;;;4.80;1.23;;;;;;;;;;5074298;28;20090;-62
2023/09/19 11:36:02;;;;;;;6.80;1.30;;;;;;;;;;4993371;28;20409;-62
2023/09/19 11:38:52;;;;;;;3.17;1.08;;;;;;;;;;5045607;28;20055;-61
2023/09/19 11:41:21;;;;;;;3.50;1.10;;;;;;;;;;5070470;28;20902;-63
2023/09/19 11:43:46;;;;;;;4.50;1.37;;;;;;;;;;5057298;28;20024;-63
2023/09/19 11:46:16;;;;;;;5.57;1.15;;;;;;;;;;5082358;28;20061;-63
2023/09/19 11:48:42;;;;;;;;;;;;;;;;;;5078219;28;20737;-64
2023/09/19 11:51:19;;;;;;;5.00;1.25;;;;;;;;;;5058201;28;19911;-63
2023/09/19 11:53:48;;;;;;;6.45;1.40;;;;;;;;;;5072815;28;20019;-67
2023/09/19 11:56:16;;;;;;;4.28;1.20;;;;;;;;;;5056180;28;20028;-63
2023/09/19 11:58:42;;;;;;;6.70;1.33;;;;;;;;;;5056715;28;20020;-63
2023/09/19 12:01:13;;;;;;;3.40;1.02;;;;;;;;;;5059356;28;20016;-62
2023/09/19 12:03:41;;;;;;;4.97;1.38;;;;;;;;;;5078906;28;20016;-64
2023/09/19 12:06:16;;;;;;;5.47;1.30;;;;;;;;;;5097224;27;20701;-62
2023/09/19 12:08:42;;;;;;;4.68;1.40;;;;;;;;;;5074856;28;20017;-63
2023/09/19 12:11:11;;;;;;;5.35;1.17;;;;;;;;;;5081077;28;20054;-61
2023/09/19 12:13:38;;;;;;;;;;;;;;;;;;5069234;28;20411;-62
2023/09/19 12:16:11;;;;;;;4.47;1.40;;;;;;;;;;5075027;28;19913;-63
2023/09/19 12:18:36;;;;;;;4.25;1.15;;;;;;;;;;5076517;28;20024;-64
2023/09/19 12:21:07;;;;;;;5.50;1.33;;;;;;;;;;5096325;27;20016;-63
2023/09/19 12:23:35;;;;;;;6.45;1.55;;;;;;;;;;5066049;28;20016;-64
2023/09/19 12:26:12;;;;;;;3.75;1.20;;;;;;;;;;5081405;28;20032;-63
2023/09/19 12:28:41;;;;;;;5.25;1.58;;;;;;;;;;5074925;28;20012;-64
2023/09/19 12:31:08;;;;;;;5.20;1.30;;;;;;;;;;5060322;28;20445;-63
2023/09/19 12:33:33;;;;;;;6.25;1.40;;;;;;;;;;5074778;28;20135;-64
2023/09/19 12:35:59;;;;;;;4.65;1.50;;;;;;;;;;5072115;28;20028;-63
2023/09/19 12:38:25;;;;;;;4.03;1.10;;;;;;;;;;5066723;28;20381;-63
2023/09/19 12:40:51;;;;;;;5.47;1.40;;;;;;;;;;5079480;28;20369;-63
2023/09/19 12:43:16;;;;;;;5.18;1.35;;;;;;;;;;5076180;28;20028;-63
2023/09/19 12:45:42;;;;;;;7.07;1.38;;;;;;;;;;5076971;28;20031;-62
2023/09/19 12:48:33;;;;;;;4.95;1.40;;;;;;;;;;5071121;28;20343;-63
2023/09/19 12:51:05;;;;;;;5.25;1.40;;;;;;;;;;5059752;28;20020;-62
2023/09/19 12:53:32;;;;;;;4.85;1.40;;;;;;;;;;5079583;28;20411;-63
2023/09/19 12:55:58;;;;;;;4.90;1.60;;;;;;;;;;5073928;28;20746;-63
2023/09/19 12:58:26;;;;;;;4.35;1.40;;;;;;;;;;5081511;28;20020;-66
2023/09/19 13:00:52;;;;;;;4.57;1.38;;;;;;;;;;5061338;28;20442;-64
2023/09/19 13:03:28;;;;;;;6.25;1.50;;;;;;;;;;5076828;28;20077;-61
2023/09/19 13:06:02;;;;;;;5.32;1.40;;;;;;;;;;5058777;28;20031;-62
2023/09/19 13:08:29;;;;;;;5.22;1.40;;;;;;;;;;5057882;28;20031;-61
2023/09/19 13:11:09;;;;;;;5.35;1.35;;;;;;;;;;5075421;28;20028;-60
2023/09/19 13:13:36;;;;;;;4.18;1.40;;;;;;;;;;5059652;28;20032;-63
2023/09/19 13:16:04;;;;;;;4.43;1.20;;;;;;;;;;5057279;28;20067;-63
2023/09/19 13:18:33;;;;;;;5.15;1.60;;;;;;;;;;5070732;28;21155;-64
2023/09/19 13:21:14;;;;;;;7.32;1.45;;;;;;;;;;5076986;28;20475;-63
2023/09/19 13:23:42;;;;;;;11.10;2.05;;;;;;;;;;5054257;28;20362;-62
2023/09/19 13:26:07;;;;;;;4.90;1.65;;;;;;;;;;5068738;28;20071;-63
2023/09/19 13:28:33;;;;;;;4.22;1.40;;;;;;;;;;5079517;28;20182;-63
2023/09/19 13:30:59;;;;;;;4.88;1.48;;;;;;;;;;5071691;28;20143;-64
2023/09/19 13:33:26;;;;;;;4.77;1.47;;;;;;;;;;5056703;28;20426;-64
2023/09/19 13:35:54;;;;;;;4.55;1.50;;;;;;;;;;5076523;28;20585;-60
2023/09/19 13:38:22;;;;;;;3.92;1.35;;;;;;;;;;5062533;28;20019;-64
2023/09/19 13:40:52;;;;;;;5.68;1.60;;;;;;;;;;5074209;28;20085;-64
2023/09/19 13:43:17;;;;;;;8.05;1.70;;;;;;;;;;5057699;28;20023;-61
2023/09/19 13:45:45;;;;;;;8.17;1.60;;;;;;;;;;5070359;28;20053;-61
2023/09/19 13:48:12;;;;;;;5.25;1.55;;;;;;;;;;5078556;28;20524;-62
2023/09/19 13:50:41;;;;;;;4.88;1.65;;;;;;;;;;5057886;28;20845;-64
2023/09/19 13:53:07;;;;;;;5.25;1.38;;;;;;;;;;5074544;28;20046;-63
2023/09/19 13:55:32;;;;;;;4.55;1.50;;;;;;;;;;5075865;28;20107;-63
2023/09/19 13:57:58;;;;;;;5.03;1.57;;;;;;;;;;5055860;28;20033;-61
2023/09/19 14:00:23;;;;;;;6.33;1.63;;;;;;;;;;5076893;28;20799;-60
2023/09/19 14:02:48;;;;;;;4.40;1.20;;;;;;;;;;5076147;28;20061;-62
2023/09/19 14:05:14;;;;;;;4.80;1.58;;;;;;;;;;5081017;28;20020;-62
2023/09/19 14:07:42;;;;;;;5.18;1.55;;;;;;;;;;5077040;28;20379;-62
2023/09/19 14:10:11;;;;;;;4.35;1.55;;;;;;;;;;5061816;28;20032;-63
2023/09/19 14:12:37;;;;;;;7.50;1.80;;;;;;;;;;5055579;28;20089;-62
2023/09/19 14:15:02;;;;;;;5.53;1.50;;;;;;;;;;5080616;28;20020;-62
2023/09/19 14:17:30;;;;;;;5.47;1.42;;;;;;;;;;5065254;28;20108;-63
2023/09/19 14:19:55;;;;;;;5.05;1.70;;;;;;;;;;5072210;28;20028;-63
2023/09/19 14:22:20;;;;;;;6.00;1.77;;;;;;;;;;5075022;28;20107;-62
2023/09/19 14:24:46;;;;;;;4.73;1.30;;;;;;;;;;5055198;28;20023;-63
2023/09/19 14:27:11;;;;;;;6.03;1.57;;;;;;;;;;5079049;28;20036;-63
2023/09/19 14:29:36;;;;;;;4.50;1.40;;;;;;;;;;5074602;28;20269;-64
2023/09/19 14:32:04;;;;;;;6.03;1.63;;;;;;;;;;5080476;28;20622;-63
2023/09/19 14:34:32;;;;;;;4.63;1.60;;;;;;;;;;5078498;28;20019;-62
2023/09/19 14:37:00;;;;;;;4.90;1.40;;;;;;;;;;5058820;28;20109;-63
2023/09/19 14:39:27;;;;;;;5.07;1.17;;;;;;;;;;5060558;28;20028;-62
2023/09/19 14:41:54;;;;;;;5.32;1.85;;;;;;;;;;5066572;28;20038;-61
2023/09/19 14:44:19;;;;;;;5.13;1.50;;;;;;;;;;5086450;28;20043;-64
2023/09/19 14:46:45;;;;;;;5.43;1.50;;;;;;;;;;5059420;28;20051;-63
2023/09/19 14:49:10;;;;;;;4.85;1.40;;;;;;;;;;5057284;28;20106;-64
2023/09/19 14:51:39;;;;;;;5.10;1.40;;;;;;;;;;5057720;28;20020;-62
2023/09/19 14:54:07;;;;;;;6.93;1.65;;;;;;;;;;5077190;28;20055;-66
2023/09/19 14:56:32;;;;;;;5.97;1.90;;;;;;;;;;5068438;28;20024;-64
2023/09/19 14:58:57;;;;;;;4.00;1.37;;;;;;;;;;5056999;28;20076;-63